sensor_id;sensor_type;location;lat;lon;timestamp;temperature;humidity
8114;DHT22;4099;52.684;9.918;2023-09-19T00:01:06;15.80;99.90
8114;DHT22;4099;52.684;9.918;2023-09-19T00:06:09;15.90;99.90
8114;DHT22;4099;52.684;9.918;2023-09-19T00:11:12;16.00;99.90
8114;DHT22;4099;52.684;9.918;2023-09-19T00:16:14;16.00;99.90
8114;DHT22;4099;52.684;9.918;2023-09-19T00:21:16;16.00;99.90
8114;DHT22;4099;52.684;9.918;2023-09-19T00:26:21;16.00;99.90
8114;DHT22;4099;52.684;9.918;2023-09-19T00:31:24;16.00;99.90
8114;DHT22;4099;52.684;9.918;2023-09-19T00:36:26;15.90;99.90
8114;DHT22;4099;52.684;9.918;2023-09-19T00:41:31;16.00;99.90
8114;DHT22;4099;52.684;9.918;2023-09-19T00:46:33;15.80;99.90
8114;DHT22;4099;52.684;9.918;2023-09-19T00:51:35;15.80;99.90
8114;DHT22;4099;52.684;9.918;2023-09-19T00:56:38;15.90;99.90
8114;DHT22;4099;52.684;9.918;2023-09-19T01:01:41;15.90;99.90
8114;DHT22;4099;52.684;9.918;2023-09-19T01:06:46;15.80;99.90
8114;DHT22;4099;52.684;9.918;2023-09-19T01:11:58;15.80;99.90
8114;DHT22;4099;52.684;9.918;2023-09-19T01:17:07;15.70;99.90
8114;DHT22;4099;52.684;9.918;2023-09-19T01:22:19;15.80;99.90
8114;DHT22;4099;52.684;9.918;2023-09-19T01:27:42;15.80;99.90
8114;DHT22;4099;52.684;9.918;2023-09-19T01:32:54;15.80;99.90
8114;DHT22;4099;52.684;9.918;2023-09-19T01:37:57;15.80;99.90
8114;DHT22;4099;52.684;9.918;2023-09-19T01:43:08;16.00;99.90
8114;DHT22;4099;52.684;9.918;2023-09-19T01:48:20;16.00;99.90
8114;DHT22;4099;52.684;9.918;2023-09-19T01:53:27;16.00;99.90
8114;DHT22;4099;52.684;9.918;2023-09-19T01:58:34;15.90;99.90
8114;DHT22;4099;52.684;9.918;2023-09-19T02:03:39;15.90;99.90
8114;DHT22;4099;52.684;9.918;2023-09-19T02:08:41;16.00;99.90
8114;DHT22;4099;52.684;9.918;2023-09-19T02:13:43;15.90;99.90
8114;DHT22;4099;52.684;9.918;2023-09-19T02:18:47;16.00;99.90
8114;DHT22;4099;52.684;9.918;2023-09-19T02:23:50;15.80;99.90
8114;DHT22;4099;52.684;9.918;2023-09-19T02:28:52;15.80;99.90
8114;DHT22;4099;52.684;9.918;2023-09-19T02:33:55;15.60;99.90
8114;DHT22;4099;52.684;9.918;2023-09-19T02:38:58;15.70;99.90
8114;DHT22;4099;52.684;9.918;2023-09-19T02:44:00;15.60;99.90
8114;DHT22;4099;52.684;9.918;2023-09-19T02:49:05;15.60;99.90
8114;DHT22;4099;52.684;9.918;2023-09-19T02:54:08;15.50;99.90
8114;DHT22;4099;52.684;9.918;2023-09-19T02:59:10;15.40;99.90
8114;DHT22;4099;52.684;9.918;2023-09-19T03:04:14;15.40;99.90
8114;DHT22;4099;52.684;9.918;2023-09-19T03:09:18;15.30;99.90
8114;DHT22;4099;52.684;9.918;2023-09-19T03:14:20;15.30;99.90
8114;DHT22;4099;52.684;9.918;2023-09-19T03:19:25;15.20;99.90
8114;DHT22;4099;52.684;9.918;2023-09-19T03:24:28;15.20;99.90
8114;DHT22;4099;52.684;9.918;2023-09-19T03:29:33;15.10;99.90
8114;DHT22;4099;52.684;9.918;2023-09-19T03:34:38;15.10;99.90
8114;DHT22;4099;52.684;9.918;2023-09-19T03:39:43;15.00;99.90
8114;DHT22;4099;52.684;9.918;2023-09-19T03:44:45;15.10;99.90
8114;DHT22;4099;52.684;9.918;2023-09-19T03:49:48;15.10;99.90
8114;DHT22;4099;52.684;9.918;2023-09-19T03:54:50;15.10;99.90
8114;DHT22;4099;52.684;9.918;2023-09-19T03:59:53;15.20;99.90
8114;DHT22;4099;52.684;9.918;2023-09-19T04:04:56;15.20;99.90
8114;DHT22;4099;52.684;9.918;2023-09-19T04:09:58;15.20;99.90
8114;DHT22;4099;52.684;9.918;2023-09-19T04:14:59;15.30;99.90
8114;DHT22;4099;52.684;9.918;2023-09-19T04:20:04;15.30;99.90
8114;DHT22;4099;52.684;9.918;2023-09-19T04:25:08;15.40;99.90
8114;DHT22;4099;52.684;9.918;2023-09-19T04:30:11;15.40;99.90
8114;DHT22;4099;52.684;9.918;2023-09-19T04:35:15;15.30;99.90
8114;DHT22;4099;52.684;9.918;2023-09-19T04:40:17;15.10;99.90
8114;DHT22;4099;52.684;9.918;2023-09-19T04:45:20;15.00;99.90
8114;DHT22;4099;52.684;9.918;2023-09-19T04:50:23;15.00;99.90
8114;DHT22;4099;52.684;9.918;2023-09-19T04:55:27;14.90;99.90
8114;DHT22;4099;52.684;9.918;2023-09-19T05:00:31;14.90;99.90
8114;DHT22;4099;52.684;9.918;2023-09-19T05:05:37;14.80;99.90
8114;DHT22;4099;52.684;9.918;2023-09-19T05:10:39;14.80;99.90
8114;DHT22;4099;52.684;9.918;2023-09-19T05:15:41;14.80;99.90
8114;DHT22;4099;52.684;9.918;2023-09-19T05:20:44;14.80;99.90
8114;DHT22;4099;52.684;9.918;2023-09-19T05:25:46;14.90;99.90
8114;DHT22;4099;52.684;9.918;2023-09-19T05:30:49;14.80;99.90
8114;DHT22;4099;52.684;9.918;2023-09-19T05:35:53;14.80;99.90
8114;DHT22;4099;52.684;9.918;2023-09-19T05:40:55;14.80;99.90
8114;DHT22;4099;52.684;9.918;2023-09-19T05:45:59;14.80;99.90
8114;DHT22;4099;52.684;9.918;2023-09-19T05:51:03;14.80;99.90
8114;DHT22;4099;52.684;9.918;2023-09-19T05:56:06;14.90;99.90
8114;DHT22;4099;52.684;9.918;2023-09-19T06:01:07;14.80;99.90
8114;DHT22;4099;52.684;9.918;2023-09-19T06:06:11;14.80;99.90
8114;DHT22;4099;52.684;9.918;2023-09-19T06:11:13;14.70;99.90
8114;DHT22;4099;52.684;9.918;2023-09-19T06:16:15;14.60;99.90
8114;DHT22;4099;52.684;9.918;2023-09-19T06:21:21;14.70;99.90
8114;DHT22;4099;52.684;9.918;2023-09-19T06:26:24;14.80;99.90
8114;DHT22;4099;52.684;9.918;2023-09-19T06:31:27;14.90;99.90
8114;DHT22;4099;52.684;9.918;2023-09-19T06:36:31;15.00;99.90
8114;DHT22;4099;52.684;9.918;2023-09-19T06:41:33;15.10;99.90
8114;DHT22;4099;52.684;9.918;2023-09-19T06:46:40;15.10;99.90
8114;DHT22;4099;52.684;9.918;2023-09-19T06:51:48;15.30;99.90
8114;DHT22;4099;52.684;9.918;2023-09-19T06:56:50;15.30;99.90
8114;DHT22;4099;52.684;9.918;2023-09-19T07:01:52;15.50;99.90
8114;DHT22;4099;52.684;9.918;2023-09-19T07:06:55;15.70;99.90
8114;DHT22;4099;52.684;9.918;2023-09-19T07:11:57;15.70;99.90
8114;DHT22;4099;52.684;9.918;2023-09-19T07:17:00;15.70;99.90
8114;DHT22;4099;52.684;9.918;2023-09-19T07:22:04;15.70;99.90
8114;DHT22;4099;52.684;9.918;2023-09-19T07:27:10;15.80;99.90
8114;DHT22;4099;52.684;9.918;2023-09-19T07:32:12;15.80;99.90
8114;DHT22;4099;52.684;9.918;2023-09-19T07:37:16;16.00;99.90
8114;DHT22;4099;52.684;9.918;2023-09-19T07:42:17;16.20;99.90
8114;DHT22;4099;52.684;9.918;2023-09-19T07:47:19;16.30;99.90
8114;DHT22;4099;52.684;9.918;2023-09-19T07:52:23;16.50;99.90
8114;DHT22;4099;52.684;9.918;2023-09-19T07:57:25;16.70;99.90
8114;DHT22;4099;52.684;9.918;2023-09-19T08:02:27;16.60;99.90
8114;DHT22;4099;52.684;9.918;2023-09-19T08:07:30;16.80;99.90
8114;DHT22;4099;52.684;9.918;2023-09-19T08:12:32;17.00;99.90
8114;DHT22;4099;52.684;9.918;2023-09-19T08:17:34;16.90;99.90
8114;DHT22;4099;52.684;9.918;2023-09-19T08:22:38;16.90;99.90
8114;DHT22;4099;52.684;9.918;2023-09-19T08:27:43;16.90;99.90
8114;DHT22;4099;52.684;9.918;2023-09-19T08:32:48;17.20;99.90
8114;DHT22;4099;52.684;9.918;2023-09-19T08:37:51;17.30;99.90
8114;DHT22;4099;52.684;9.918;2023-09-19T08:42:54;17.60;99.90
8114;DHT22;4099;52.684;9.918;2023-09-19T08:48:03;17.50;99.90
8114;DHT22;4099;52.684;9.918;2023-09-19T08:53:11;17.60;99.90
8114;DHT22;4099;52.684;9.918;2023-09-19T08:58:17;17.70;99.90
8114;DHT22;4099;52.684;9.918;2023-09-19T09:03:22;17.30;99.90
8114;DHT22;4099;52.684;9.918;2023-09-19T09:08:27;17.40;99.90
8114;DHT22;4099;52.684;9.918;2023-09-19T09:13:32;17.60;99.90
8114;DHT22;4099;52.684;9.918;2023-09-19T09:18:34;17.70;99.90
8114;DHT22;4099;52.684;9.918;2023-09-19T09:23:38;17.70;99.90
8114;DHT22;4099;52.684;9.918;2023-09-19T09:28:46;17.70;99.90
8114;DHT22;4099;52.684;9.918;2023-09-19T09:33:54;17.70;99.90
8114;DHT22;4099;52.684;9.918;2023-09-19T09:38:57;17.60;99.90
8114;DHT22;4099;52.684;9.918;2023-09-19T09:44:12;17.80;99.90
8114;DHT22;4099;52.684;9.918;2023-09-19T09:49:24;18.10;99.90
8114;DHT22;4099;52.684;9.918;2023-09-19T09:54:29;18.10;99.90
8114;DHT22;4099;52.684;9.918;2023-09-19T09:59:45;18.10;99.90
8114;DHT22;4099;52.684;9.918;2023-09-19T10:04:48;18.30;99.90
8114;DHT22;4099;52.684;9.918;2023-09-19T10:10:13;18.10;99.90
8114;DHT22;4099;52.684;9.918;2023-09-19T10:15:18;18.20;99.90
8114;DHT22;4099;52.684;9.918;2023-09-19T10:20:21;18.40;99.90
8114;DHT22;4099;52.684;9.918;2023-09-19T10:25:41;18.50;99.90
8114;DHT22;4099;52.684;9.918;2023-09-19T10:30:44;18.60;99.90
8114;DHT22;4099;52.684;9.918;2023-09-19T10:35:49;18.50;99.90
8114;DHT22;4099;52.684;9.918;2023-09-19T10:40:54;18.70;99.90
8114;DHT22;4099;52.684;9.918;2023-09-19T10:46:01;18.70;99.90
8114;DHT22;4099;52.684;9.918;2023-09-19T10:51:08;19.20;99.90
8114;DHT22;4099;52.684;9.918;2023-09-19T10:56:18;19.30;99.90
8114;DHT22;4099;52.684;9.918;2023-09-19T11:01:21;19.30;99.90
8114;DHT22;4099;52.684;9.918;2023-09-19T11:06:23;19.30;99.90
8114;DHT22;4099;52.684;9.918;2023-09-19T11:11:43;19.40;99.90
8114;DHT22;4099;52.684;9.918;2023-09-19T11:28:35;18.80;99.90
8114;DHT22;4099;52.684;9.918;2023-09-19T11:33:40;18.90;99.90
8114;DHT22;4099;52.684;9.918;2023-09-19T11:39:00;19.00;99.90
8114;DHT22;4099;52.684;9.918;2023-09-19T11:44:32;19.30;99.90
8114;DHT22;4099;52.684;9.918;2023-09-19T11:49:40;19.70;99.90
8114;DHT22;4099;52.684;9.918;2023-09-19T11:54:43;19.80;99.90
8114;DHT22;4099;52.684;9.918;2023-09-19T11:59:49;19.90;99.90
8114;DHT22;4099;52.684;9.918;2023-09-19T12:04:54;19.80;99.90
8114;DHT22;4099;52.684;9.918;2023-09-19T12:10:03;20.10;99.90
8114;DHT22;4099;52.684;9.918;2023-09-19T12:15:08;19.90;99.50
8114;DHT22;4099;52.684;9.918;2023-09-19T12:20:11;20.00;99.90
8114;DHT22;4099;52.684;9.918;2023-09-19T12:25:14;20.00;99.70
8114;DHT22;4099;52.684;9.918;2023-09-19T12:30:19;19.80;99.90
8114;DHT22;4099;52.684;9.918;2023-09-19T12:35:27;20.10;99.30
8114;DHT22;4099;52.684;9.918;2023-09-19T12:40:31;20.20;99.50
8114;DHT22;4099;52.684;9.918;2023-09-19T12:45:38;20.40;99.90
8114;DHT22;4099;52.684;9.918;2023-09-19T12:51:01;20.30;99.50
8114;DHT22;4099;52.684;9.918;2023-09-19T12:56:07;20.40;99.40
8114;DHT22;4099;52.684;9.918;2023-09-19T13:01:15;20.30;99.90
8114;DHT22;4099;52.684;9.918;2023-09-19T13:06:35;20.70;99.90
8114;DHT22;4099;52.684;9.918;2023-09-19T13:11:41;20.70;99.40
8114;DHT22;4099;52.684;9.918;2023-09-19T13:17:00;20.30;99.70
8114;DHT22;4099;52.684;9.918;2023-09-19T13:22:05;20.10;99.90
8114;DHT22;4099;52.684;9.918;2023-09-19T13:27:09;20.60;99.90
8114;DHT22;4099;52.684;9.918;2023-09-19T13:32:12;20.50;99.80
8114;DHT22;4099;52.684;9.918;2023-09-19T13:37:14;20.50;99.90
8114;DHT22;4099;52.684;9.918;2023-09-19T13:42:18;20.60;99.90
8114;DHT22;4099;52.684;9.918;2023-09-19T13:47:23;20.40;99.90
8114;DHT22;4099;52.684;9.918;2023-09-19T13:52:28;20.30;99.90
8114;DHT22;4099;52.684;9.918;2023-09-19T13:57:31;20.70;99.90
8114;DHT22;4099;52.684;9.918;2023-09-19T14:02:35;20.70;99.90
8114;DHT22;4099;52.684;9.918;2023-09-19T14:07:37;20.70;99.90
8114;DHT22;4099;52.684;9.918;2023-09-19T14:12:39;21.10;99.90
8114;DHT22;4099;52.684;9.918;2023-09-19T14:17:42;21.10;99.30
8114;DHT22;4099;52.684;9.918;2023-09-19T14:22:45;20.70;99.90
8114;DHT22;4099;52.684;9.918;2023-09-19T14:27:47;20.20;99.90
8114;DHT22;4099;52.684;9.918;2023-09-19T14:32:51;20.20;99.90
8114;DHT22;4099;52.684;9.918;2023-09-19T14:37:56;20.00;99.70
8114;DHT22;4099;52.684;9.918;2023-09-19T14:42:57;19.90;99.90
8114;DHT22;4099;52.684;9.918;2023-09-19T14:48:01;19.90;99.90
8114;DHT22;4099;52.684;9.918;2023-09-19T14:53:05;20.00;99.90
8114;DHT22;4099;52.684;9.918;2023-09-19T14:58:11;19.90;99.90
8114;DHT22;4099;52.684;9.918;2023-09-19T15:03:14;19.80;99.90
8114;DHT22;4099;52.684;9.918;2023-09-19T15:08:16;19.70;99.90
8114;DHT22;4099;52.684;9.918;2023-09-19T15:13:18;19.80;99.90
8114;DHT22;4099;52.684;9.918;2023-09-19T15:18:22;19.70;99.90
8114;DHT22;4099;52.684;9.918;2023-09-19T15:23:23;19.60;99.90
8114;DHT22;4099;52.684;9.918;2023-09-19T15:28:25;19.80;99.90
8114;DHT22;4099;52.684;9.918;2023-09-19T15:33:30;20.20;99.90
8114;DHT22;4099;52.684;9.918;2023-09-19T15:38:55;20.20;99.70
8114;DHT22;4099;52.684;9.918;2023-09-19T15:43:58;20.20;99.90
8114;DHT22;4099;52.684;9.918;2023-09-19T15:49:03;20.00;99.90
8114;DHT22;4099;52.684;9.918;2023-09-19T15:54:08;19.80;99.90
8114;DHT22;4099;52.684;9.918;2023-09-19T15:59:10;19.70;99.90
8114;DHT22;4099;52.684;9.918;2023-09-19T16:04:14;19.60;99.90
8114;DHT22;4099;52.684;9.918;2023-09-19T16:09:17;19.60;99.90
8114;DHT22;4099;52.684;9.918;2023-09-19T16:14:19;19.40;99.90
8114;DHT22;4099;52.684;9.918;2023-09-19T16:19:22;19.40;99.90
8114;DHT22;4099;52.684;9.918;2023-09-19T16:24:24;19.30;99.90
8114;DHT22;4099;52.684;9.918;2023-09-19T16:29:26;19.20;99.90
8114;DHT22;4099;52.684;9.918;2023-09-19T16:34:29;19.00;99.90
8114;DHT22;4099;52.684;9.918;2023-09-19T16:39:32;19.10;99.90
8114;DHT22;4099;52.684;9.918;2023-09-19T16:44:37;19.00;99.90
8114;DHT22;4099;52.684;9.918;2023-09-19T16:49:40;19.00;99.90
8114;DHT22;4099;52.684;9.918;2023-09-19T16:54:42;19.10;99.90
8114;DHT22;4099;52.684;9.918;2023-09-19T16:59:44;19.10;99.90
8114;DHT22;4099;52.684;9.918;2023-09-19T17:04:50;18.90;99.90
8114;DHT22;4099;52.684;9.918;2023-09-19T17:09:52;18.80;99.90
8114;DHT22;4099;52.684;9.918;2023-09-19T17:14:56;18.90;99.90
8114;DHT22;4099;52.684;9.918;2023-09-19T17:19:59;18.90;99.90
8114;DHT22;4099;52.684;9.918;2023-09-19T17:25:01;18.90;99.90
8114;DHT22;4099;52.684;9.918;2023-09-19T17:30:04;18.80;99.90
8114;DHT22;4099;52.684;9.918;2023-09-19T17:35:09;18.80;99.90
8114;DHT22;4099;52.684;9.918;2023-09-19T17:40:11;18.70;99.90
8114;DHT22;4099;52.684;9.918;2023-09-19T17:45:13;18.70;99.90
8114;DHT22;4099;52.684;9.918;2023-09-19T17:50:17;18.60;99.90
8114;DHT22;4099;52.684;9.918;2023-09-19T17:55:19;18.70;99.90
8114;DHT22;4099;52.684;9.918;2023-09-19T18:00:21;18.60;99.90
8114;DHT22;4099;52.684;9.918;2023-09-19T18:05:24;18.60;99.90
8114;DHT22;4099;52.684;9.918;2023-09-19T18:10:26;18.50;99.90
8114;DHT22;4099;52.684;9.918;2023-09-19T18:15:29;18.60;99.90
8114;DHT22;4099;52.684;9.918;2023-09-19T18:20:38;18.60;99.90
8114;DHT22;4099;52.684;9.918;2023-09-19T18:25:40;18.60;99.90
8114;DHT22;4099;52.684;9.918;2023-09-19T18:30:42;18.60;99.90
8114;DHT22;4099;52.684;9.918;2023-09-19T18:35:45;18.50;99.90
8114;DHT22;4099;52.684;9.918;2023-09-19T18:40:47;18.40;99.90
8114;DHT22;4099;52.684;9.918;2023-09-19T18:45:56;18.50;99.90
8114;DHT22;4099;52.684;9.918;2023-09-19T18:51:04;18.60;99.90
8114;DHT22;4099;52.684;9.918;2023-09-19T18:56:09;18.60;99.90
8114;DHT22;4099;52.684;9.918;2023-09-19T19:01:12;18.60;99.90
8114;DHT22;4099;52.684;9.918;2023-09-19T19:06:18;18.60;99.90
8114;DHT22;4099;52.684;9.918;2023-09-19T19:11:22;18.60;99.90
8114;DHT22;4099;52.684;9.918;2023-09-19T19:16:26;18.50;99.90
8114;DHT22;4099;52.684;9.918;2023-09-19T19:21:31;18.40;99.90
8114;DHT22;4099;52.684;9.918;2023-09-19T19:26:33;18.50;99.90
8114;DHT22;4099;52.684;9.918;2023-09-19T19:31:35;18.40;99.90
8114;DHT22;4099;52.684;9.918;2023-09-19T19:36:39;18.50;99.90
8114;DHT22;4099;52.684;9.918;2023-09-19T19:41:41;18.50;99.90
8114;DHT22;4099;52.684;9.918;2023-09-19T19:46:44;18.40;99.90
8114;DHT22;4099;52.684;9.918;2023-09-19T19:51:47;18.40;99.90
8114;DHT22;4099;52.684;9.918;2023-09-19T19:56:50;18.40;99.90
8114;DHT22;4099;52.684;9.918;2023-09-19T20:01:52;18.40;99.90
8114;DHT22;4099;52.684;9.918;2023-09-19T20:06:55;18.40;99.90
8114;DHT22;4099;52.684;9.918;2023-09-19T20:11:57;18.40;99.90
8114;DHT22;4099;52.684;9.918;2023-09-19T20:16:59;18.30;99.90
8114;DHT22;4099;52.684;9.918;2023-09-19T20:22:03;18.40;99.90
8114;DHT22;4099;52.684;9.918;2023-09-19T20:27:09;18.40;99.90
8114;DHT22;4099;52.684;9.918;2023-09-19T20:32:13;18.30;99.90
8114;DHT22;4099;52.684;9.918;2023-09-19T20:37:18;18.20;99.90
8114;DHT22;4099;52.684;9.918;2023-09-19T20:42:20;18.30;99.90
8114;DHT22;4099;52.684;9.918;2023-09-19T20:47:24;18.30;99.90
8114;DHT22;4099;52.684;9.918;2023-09-19T20:52:27;18.30;99.90
8114;DHT22;4099;52.684;9.918;2023-09-19T20:57:29;18.30;99.90
8114;DHT22;4099;52.684;9.918;2023-09-19T21:02:31;18.20;99.90
8114;DHT22;4099;52.684;9.918;2023-09-19T21:07:34;18.20;99.90
8114;DHT22;4099;52.684;9.918;2023-09-19T21:12:36;18.10;99.90
8114;DHT22;4099;52.684;9.918;2023-09-19T21:17:38;18.10;99.90
8114;DHT22;4099;52.684;9.918;2023-09-19T21:22:44;18.20;99.90
8114;DHT22;4099;52.684;9.918;2023-09-19T21:27:46;18.20;99.90
8114;DHT22;4099;52.684;9.918;2023-09-19T21:32:48;18.20;99.90
8114;DHT22;4099;52.684;9.918;2023-09-19T21:37:51;18.10;99.90
8114;DHT22;4099;52.684;9.918;2023-09-19T21:42:53;18.20;99.90
8114;DHT22;4099;52.684;9.918;2023-09-19T21:47:55;18.20;99.90
8114;DHT22;4099;52.684;9.918;2023-09-19T21:52:59;18.00;99.90
8114;DHT22;4099;52.684;9.918;2023-09-19T21:58:01;18.10;99.90
8114;DHT22;4099;52.684;9.918;2023-09-19T22:03:03;18.20;99.90
8114;DHT22;4099;52.684;9.918;2023-09-19T22:08:09;18.10;99.90
8114;DHT22;4099;52.684;9.918;2023-09-19T22:13:10;18.10;99.90
8114;DHT22;4099;52.684;9.918;2023-09-19T22:18:13;18.10;99.90
8114;DHT22;4099;52.684;9.918;2023-09-19T22:23:20;18.00;99.90
8114;DHT22;4099;52.684;9.918;2023-09-19T22:28:30;18.10;99.90
8114;DHT22;4099;52.684;9.918;2023-09-19T22:33:35;18.10;99.90
8114;DHT22;4099;52.684;9.918;2023-09-19T22:38:41;18.00;99.90
8114;DHT22;4099;52.684;9.918;2023-09-19T22:43:43;18.00;99.90
8114;DHT22;4099;52.684;9.918;2023-09-19T22:48:48;18.00;99.90
8114;DHT22;4099;52.684;9.918;2023-09-19T22:53:54;18.00;99.90
8114;DHT22;4099;52.684;9.918;2023-09-19T22:58:59;18.00;99.90
8114;DHT22;4099;52.684;9.918;2023-09-19T23:04:02;17.90;99.90
8114;DHT22;4099;52.684;9.918;2023-09-19T23:09:18;17.90;99.90
8114;DHT22;4099;52.684;9.918;2023-09-19T23:14:22;18.00;99.90
8114;DHT22;4099;52.684;9.918;2023-09-19T23:19:33;17.90;99.90
8114;DHT22;4099;52.684;9.918;2023-09-19T23:24:37;17.90;99.90
8114;DHT22;4099;52.684;9.918;2023-09-19T23:29:41;17.70;99.90
8114;DHT22;4099;52.684;9.918;2023-09-19T23:34:43;17.70;99.90
8114;DHT22;4099;52.684;9.918;2023-09-19T23:39:50;17.60;99.90
8114;DHT22;4099;52.684;9.918;2023-09-19T23:44:52;17.50;99.90
8114;DHT22;4099;52.684;9.918;2023-09-19T23:49:55;17.60;99.90
8114;DHT22;4099;52.684;9.918;2023-09-19T23:54:59;17.60;99.90
